createdAt,value
2023-02-14T00:00:57.044Z,63.44
2023-02-14T00:02:00.833Z,64.08
2023-02-14T00:03:01.325Z,63.50
2023-02-14T00:04:04.120Z,62.28
2023-02-14T00:05:05.167Z,61.01
2023-02-14T00:06:08.366Z,59.75
2023-02-14T00:07:09.967Z,58.28
2023-02-14T00:08:10.501Z,57.30
2023-02-14T00:09:14.636Z,57.54
2023-02-14T00:10:15.163Z,58.48
2023-02-14T00:11:15.531Z,59.54
2023-02-14T00:12:16.299Z,60.65
2023-02-14T00:13:16.740Z,61.69
2023-02-14T00:14:36.589Z,62.75
2023-02-14T00:15:36.973Z,64.06
2023-02-14T00:16:37.356Z,63.88
2023-02-14T00:17:37.762Z,62.85
2023-02-14T00:18:56.867Z,61.46
2023-02-14T00:19:57.497Z,59.81
2023-02-14T00:21:00.136Z,58.51
2023-02-14T00:22:01.636Z,57.41
2023-02-14T00:23:01.999Z,57.48
2023-02-14T00:24:09.282Z,58.25
2023-02-14T00:25:09.848Z,59.43
2023-02-14T00:26:14.484Z,60.47
2023-02-14T00:27:15.728Z,61.58
2023-02-14T00:28:16.102Z,62.70
2023-02-14T00:29:29.563Z,63.86
2023-02-14T00:30:30.246Z,64.05
2023-02-14T00:31:31.001Z,63.12
2023-02-14T00:32:31.551Z,61.88
2023-02-14T00:33:31.910Z,60.54
2023-02-14T00:34:35.767Z,59.30
2023-02-14T00:35:38.008Z,57.86
2023-02-14T00:36:38.333Z,57.33
2023-02-14T00:37:38.764Z,57.84
2023-02-14T00:38:39.223Z,58.79
2023-02-14T00:39:41.938Z,59.89
2023-02-14T00:40:42.362Z,60.91
2023-02-14T00:41:43.707Z,62.00
2023-02-14T00:42:44.249Z,63.09
2023-02-14T00:43:46.716Z,64.04
2023-02-14T00:44:47.287Z,63.90
2023-02-14T00:45:47.844Z,62.87
2023-02-14T00:46:48.257Z,61.68
2023-02-14T00:47:48.882Z,60.33
2023-02-14T00:48:49.942Z,59.17
2023-02-14T00:49:50.470Z,57.80
2023-02-14T00:50:51.997Z,57.36
2023-02-14T00:51:52.298Z,57.92
2023-02-14T00:52:52.798Z,58.93
2023-02-14T00:53:53.876Z,60.02
2023-02-14T00:54:54.293Z,61.08
2023-02-14T00:55:54.704Z,62.08
2023-02-14T00:56:55.096Z,63.13
2023-02-14T00:57:56.207Z,64.05
2023-02-14T00:58:56.820Z,63.85
2023-02-14T00:59:57.161Z,62.86
2023-02-14T01:00:59.418Z,61.49
2023-02-14T01:01:59.992Z,60.24
2023-02-14T01:03:02.696Z,58.99
2023-02-14T01:04:03.683Z,57.69
2023-02-14T01:05:04.736Z,57.45
2023-02-14T01:06:06.539Z,58.10
2023-02-14T01:07:06.945Z,59.11
2023-02-14T01:08:08.890Z,60.25
2023-02-14T01:09:10.721Z,61.34
2023-02-14T01:10:11.750Z,62.33
2023-02-14T01:11:16.478Z,63.51
2023-02-14T01:12:16.927Z,64.24
2023-02-14T01:13:19.060Z,63.75
2023-02-14T01:14:19.437Z,62.55
2023-02-14T01:15:19.839Z,61.25
2023-02-14T01:16:23.919Z,60.05
2023-02-14T01:17:24.343Z,58.79
2023-02-14T01:18:25.029Z,57.50
2023-02-14T01:19:25.450Z,57.35
2023-02-14T01:20:26.781Z,58.10
2023-02-14T01:21:31.340Z,59.19
2023-02-14T01:22:35.830Z,60.39
2023-02-14T01:23:36.238Z,61.62
2023-02-14T01:24:36.534Z,62.73
2023-02-14T01:25:38.732Z,63.90
2023-02-14T01:26:39.314Z,64.12
2023-02-14T01:27:39.775Z,63.34
2023-02-14T01:28:41.315Z,62.14
2023-02-14T01:29:42.510Z,60.87
2023-02-14T01:30:42.884Z,59.75
2023-02-14T01:31:44.326Z,58.53
2023-02-14T01:32:44.856Z,57.53
2023-02-14T01:33:47.416Z,57.77
2023-02-14T01:34:47.846Z,58.68
2023-02-14T01:35:48.328Z,59.79
2023-02-14T01:36:48.733Z,60.98
2023-02-14T01:37:49.461Z,62.12
2023-02-14T01:38:59.155Z,63.32
2023-02-14T01:40:00.003Z,64.33
2023-02-14T01:41:00.816Z,64.03
2023-02-14T01:42:01.682Z,62.94
2023-02-14T01:43:02.090Z,61.67
2023-02-14T01:44:25.500Z,60.55
2023-02-14T01:45:27.726Z,58.99
2023-02-14T01:46:31.718Z,57.82
2023-02-14T01:47:39.650Z,57.70
2023-02-14T01:48:40.730Z,58.60
2023-02-14T01:49:52.124Z,59.71
2023-02-14T01:50:54.255Z,60.99
2023-02-14T01:52:03.641Z,62.17
2023-02-14T01:53:11.580Z,63.56
2023-02-14T01:54:13.105Z,64.29
2023-02-14T01:55:22.444Z,63.81
2023-02-14T01:56:32.207Z,62.47
2023-02-14T01:57:40.072Z,61.09
2023-02-14T01:58:45.223Z,59.91
2023-02-14T02:00:19.769Z,58.65
2023-02-14T02:01:20.764Z,57.62
2023-02-14T02:02:23.063Z,58.27
2023-02-14T02:03:47.351Z,59.30
2023-02-14T02:04:47.909Z,61.01
2023-02-14T02:05:55.564Z,62.17
2023-02-14T02:07:06.258Z,63.52
2023-02-14T02:08:07.006Z,64.35
2023-02-14T02:09:41.900Z,63.84
2023-02-14T02:10:42.586Z,62.06
2023-02-14T02:11:43.983Z,60.87
2023-02-14T02:12:44.955Z,59.79
2023-02-14T02:13:45.329Z,58.57
2023-02-14T02:14:49.183Z,57.69
2023-02-14T02:16:11.332Z,57.95
2023-02-14T02:17:37.061Z,59.35
2023-02-14T02:18:40.267Z,61.10
2023-02-14T02:20:14.237Z,62.39
2023-02-14T02:21:47.695Z,64.34
2023-02-14T02:23:06.465Z,64.02
2023-02-14T02:24:12.840Z,62.69
2023-02-14T02:25:40.628Z,61.37
2023-02-14T02:26:50.462Z,60.00
2023-02-14T02:27:59.665Z,58.81
2023-02-14T02:29:24.717Z,57.77
2023-02-14T02:31:04.945Z,58.41
2023-02-14T02:32:35.122Z,60.34
2023-02-14T02:34:27.073Z,62.20
2023-02-14T02:35:56.844Z,64.39
2023-02-14T02:36:57.190Z,63.94
2023-02-14T02:38:16.995Z,62.86
2023-02-14T02:39:41.388Z,61.40
2023-02-14T02:40:51.751Z,59.90
2023-02-14T02:42:23.093Z,58.70
2023-02-14T02:44:03.720Z,57.90
2023-02-14T02:45:57.057Z,59.25
2023-02-14T02:47:05.977Z,61.49
2023-02-14T02:48:19.388Z,62.84
2023-02-14T02:50:00.087Z,64.31
2023-02-14T02:51:25.067Z,64.05
2023-02-14T02:52:50.114Z,62.46
2023-02-14T02:54:03.428Z,60.79
2023-02-14T02:55:19.870Z,59.70
2023-02-14T02:56:46.027Z,58.36
2023-02-14T02:57:51.156Z,57.87
2023-02-14T02:59:17.436Z,58.70
2023-02-14T03:00:23.552Z,60.39
2023-02-14T03:01:31.931Z,61.88
2023-02-14T03:03:06.373Z,63.44
2023-02-14T03:04:30.131Z,64.62
2023-02-14T03:05:33.922Z,63.69
2023-02-14T03:06:34.483Z,62.45
2023-02-14T03:07:39.079Z,61.24
2023-02-14T03:08:43.790Z,60.12
2023-02-14T03:09:58.521Z,59.25
2023-02-14T03:11:04.092Z,57.97
2023-02-14T03:12:20.708Z,58.08
2023-02-14T03:13:51.454Z,59.25
2023-02-14T03:15:01.166Z,61.22
2023-02-14T03:16:25.347Z,62.87
2023-02-14T03:18:02.004Z,64.56
2023-02-14T03:20:01.799Z,63.99
2023-02-14T03:21:11.529Z,61.86
2023-02-14T03:22:15.725Z,60.68
2023-02-14T03:23:24.929Z,59.78
2023-02-14T03:24:41.147Z,58.71
2023-02-14T03:26:10.005Z,58.05
2023-02-14T03:27:35.925Z,59.22
2023-02-14T03:29:23.354Z,61.04
2023-02-14T03:30:48.409Z,63.41
2023-02-14T03:32:02.380Z,64.68
2023-02-14T03:33:16.202Z,64.01
2023-02-14T03:34:24.335Z,62.68
2023-02-14T03:36:01.620Z,61.49
2023-02-14T03:37:14.638Z,59.86
2023-02-14T03:38:29.159Z,58.73
2023-02-14T03:39:52.674Z,57.86
2023-02-14T03:41:02.280Z,58.72
2023-02-14T03:42:16.517Z,60.17
2023-02-14T03:43:43.642Z,61.74
2023-02-14T03:44:48.542Z,63.71
2023-02-14T03:46:06.281Z,64.55
2023-02-14T03:47:16.745Z,63.92
2023-02-14T03:48:23.358Z,62.68
2023-02-14T03:49:30.367Z,61.35
2023-02-14T03:50:35.018Z,60.22
2023-02-14T03:51:38.365Z,59.15
2023-02-14T03:52:45.535Z,58.08
2023-02-14T03:53:53.039Z,58.05
2023-02-14T03:54:59.332Z,59.05
2023-02-14T03:56:21.567Z,60.38
2023-02-14T03:57:37.134Z,62.13
2023-02-14T03:58:45.889Z,63.82
2023-02-14T03:59:48.054Z,64.54
2023-02-14T04:00:54.386Z,63.92
2023-02-14T04:02:04.551Z,62.71
2023-02-14T04:03:11.847Z,61.40
2023-02-14T04:04:18.215Z,60.27
2023-02-14T04:05:26.682Z,59.34
2023-02-14T04:06:27.203Z,58.16
2023-02-14T04:07:27.576Z,58.05
2023-02-14T04:08:29.214Z,58.91
2023-02-14T04:09:29.615Z,60.14
2023-02-14T04:10:31.166Z,61.39
2023-02-14T04:11:35.042Z,62.72
2023-02-14T04:12:38.080Z,64.13
2023-02-14T04:13:39.152Z,64.60
2023-02-14T04:14:40.263Z,63.97
2023-02-14T04:15:40.756Z,62.86
2023-02-14T04:17:00.335Z,61.69
2023-02-14T04:18:19.489Z,60.31
2023-02-14T04:19:22.633Z,59.23
2023-02-14T04:20:24.362Z,58.15
2023-02-14T04:21:25.108Z,58.06
2023-02-14T04:22:25.628Z,58.91
2023-02-14T04:23:26.190Z,60.16
2023-02-14T04:24:26.809Z,61.44
2023-02-14T04:25:27.312Z,62.76
2023-02-14T04:26:27.806Z,64.14
2023-02-14T04:27:28.213Z,64.58
2023-02-14T04:28:28.772Z,64.00
2023-02-14T04:29:29.113Z,62.95
2023-02-14T04:30:29.819Z,61.78
2023-02-14T04:31:30.455Z,60.67
2023-02-14T04:32:31.042Z,59.67
2023-02-14T04:33:33.410Z,58.63
2023-02-14T04:34:34.728Z,57.98
2023-02-14T04:35:35.113Z,58.47
2023-02-14T04:36:35.645Z,59.56
2023-02-14T04:37:36.077Z,60.87
2023-02-14T04:38:36.656Z,62.17
2023-02-14T04:39:38.015Z,63.54
2023-02-14T04:40:38.437Z,64.55
2023-02-14T04:41:38.862Z,64.34
2023-02-14T04:42:39.318Z,63.47
2023-02-14T04:43:39.725Z,62.43
2023-02-14T04:44:40.456Z,61.28
2023-02-14T04:45:40.927Z,60.34
2023-02-14T04:46:41.579Z,59.49
2023-02-14T04:47:42.221Z,58.50
2023-02-14T04:48:42.913Z,58.07
2023-02-14T04:49:43.352Z,58.72
2023-02-14T04:50:43.775Z,59.92
2023-02-14T04:51:45.559Z,61.23
2023-02-14T04:52:45.933Z,62.60
2023-02-14T04:53:46.343Z,64.07
2023-02-14T04:54:48.056Z,64.70
2023-02-14T04:55:49.887Z,64.19
2023-02-14T04:56:51.313Z,63.16
2023-02-14T04:57:51.816Z,61.99
2023-02-14T04:58:53.631Z,60.86
2023-02-14T04:59:54.064Z,59.84
2023-02-14T05:00:54.498Z,58.89
2023-02-14T05:01:55.121Z,58.03
2023-02-14T05:02:55.533Z,58.25
2023-02-14T05:03:56.498Z,59.20
2023-02-14T05:04:57.072Z,60.44
2023-02-14T05:05:57.458Z,61.69
2023-02-14T05:06:57.901Z,63.12
2023-02-14T05:07:58.400Z,64.45
2023-02-14T05:09:00.724Z,64.71
2023-02-14T05:10:01.936Z,63.94
2023-02-14T05:11:02.595Z,62.87
2023-02-14T05:12:03.225Z,61.72
2023-02-14T05:13:03.941Z,60.68
2023-02-14T05:14:04.444Z,59.77
2023-02-14T05:15:05.102Z,58.84
2023-02-14T05:16:05.677Z,58.13
2023-02-14T05:17:06.415Z,58.42
2023-02-14T05:18:06.930Z,59.58
2023-02-14T05:19:07.726Z,60.96
2023-02-14T05:20:09.400Z,62.31
2023-02-14T05:21:10.644Z,63.86
2023-02-14T05:22:11.191Z,64.81
2023-02-14T05:23:12.970Z,64.58
2023-02-14T05:24:13.444Z,63.72
2023-02-14T05:25:13.828Z,62.64
2023-02-14T05:26:14.671Z,61.54
2023-02-14T05:27:15.152Z,60.60
2023-02-14T05:28:15.880Z,59.78
2023-02-14T05:29:16.317Z,58.98
2023-02-14T05:30:17.027Z,58.17
2023-02-14T05:31:17.492Z,58.42
2023-02-14T05:32:18.177Z,59.40
2023-02-14T05:33:18.977Z,60.71
2023-02-14T05:34:20.030Z,62.09
2023-02-14T05:35:22.468Z,63.60
2023-02-14T05:36:22.952Z,64.58
2023-02-14T05:37:23.467Z,64.40
2023-02-14T05:38:23.958Z,63.49
2023-02-14T05:39:24.514Z,62.34
2023-02-14T05:41:25.550Z,60.30
2023-02-14T05:42:25.997Z,59.43
2023-02-14T05:43:26.540Z,58.50
2023-02-14T05:44:27.021Z,58.19
2023-02-14T05:45:27.378Z,58.89
2023-02-14T05:46:27.885Z,60.09
2023-02-14T05:47:28.373Z,61.42
2023-02-14T05:48:28.888Z,62.73
2023-02-14T05:49:29.416Z,64.20
2023-02-14T05:50:29.831Z,64.71
2023-02-14T05:51:30.993Z,64.16
2023-02-14T05:52:31.520Z,63.13
2023-02-14T05:53:33.155Z,62.06
2023-02-14T05:54:33.734Z,61.15
2023-02-14T05:55:34.451Z,60.28
2023-02-14T05:56:35.195Z,59.44
2023-02-14T05:57:36.023Z,58.47
2023-02-14T05:58:36.506Z,58.09
2023-02-14T05:59:36.841Z,58.93
2023-02-14T06:00:40.937Z,60.23
2023-02-14T06:01:41.912Z,61.76
2023-02-14T06:02:42.840Z,63.28
2023-02-14T06:03:43.367Z,64.56
2023-02-14T06:04:43.843Z,64.83
2023-02-14T06:05:44.638Z,64.05
2023-02-14T06:06:45.068Z,63.04
2023-02-14T06:07:49.904Z,62.06
2023-02-14T06:08:50.856Z,61.04
2023-02-14T06:09:51.261Z,60.16
2023-02-14T06:10:51.746Z,59.43
2023-02-14T06:11:55.134Z,58.53
2023-02-14T06:12:55.770Z,58.33
2023-02-14T06:13:57.122Z,59.14
2023-02-14T06:14:57.547Z,60.41
2023-02-14T06:15:57.964Z,61.78
2023-02-14T06:16:58.488Z,63.26
2023-02-14T06:17:59.089Z,64.51
2023-02-14T06:18:59.581Z,64.62
2023-02-14T06:20:00.115Z,63.85
2023-02-14T06:21:01.133Z,62.70
2023-02-14T06:22:03.362Z,61.55
2023-02-14T06:23:04.226Z,60.55
2023-02-14T06:24:04.692Z,59.73
2023-02-14T06:25:05.996Z,58.77
2023-02-14T06:26:06.422Z,58.16
2023-02-14T06:27:06.783Z,58.67
2023-02-14T06:28:07.146Z,59.83
2023-02-14T06:29:07.675Z,61.20
2023-02-14T06:30:09.827Z,62.66
2023-02-14T06:31:17.661Z,64.17
2023-02-14T06:32:18.425Z,64.71
2023-02-14T06:33:19.060Z,64.13
2023-02-14T06:34:19.656Z,63.17
2023-02-14T06:35:20.423Z,62.03
2023-02-14T06:36:22.411Z,61.11
2023-02-14T06:37:22.930Z,60.12
2023-02-14T06:38:23.362Z,59.39
2023-02-14T06:39:23.869Z,58.49
2023-02-14T06:40:24.461Z,58.27
2023-02-14T06:41:24.927Z,59.09
2023-02-14T06:42:25.405Z,60.32
2023-02-14T06:43:25.855Z,61.64
2023-02-14T06:44:26.274Z,63.08
2023-02-14T06:45:26.898Z,64.44
2023-02-14T06:46:27.557Z,64.71
2023-02-14T06:47:28.198Z,64.03
2023-02-14T06:48:29.226Z,63.00
2023-02-14T06:49:29.705Z,61.97
2023-02-14T06:50:30.193Z,60.92
2023-02-14T06:51:30.700Z,60.06
2023-02-14T06:52:33.474Z,59.31
2023-02-14T06:53:35.187Z,58.35
2023-02-14T06:54:35.704Z,58.28
2023-02-14T06:55:36.147Z,59.17
2023-02-14T06:56:36.644Z,60.47
2023-02-14T06:57:37.235Z,61.89
2023-02-14T06:58:37.710Z,63.39
2023-02-14T06:59:38.363Z,64.68
2023-02-14T07:00:41.978Z,64.72
2023-02-14T07:01:45.612Z,63.85
2023-02-14T07:02:46.470Z,62.71
2023-02-14T07:03:47.149Z,61.59
2023-02-14T07:04:47.816Z,60.67
2023-02-14T07:05:48.454Z,59.86
2023-02-14T07:06:48.899Z,59.00
2023-02-14T07:07:49.493Z,58.17
2023-02-14T07:08:50.077Z,58.43
2023-02-14T07:09:51.212Z,59.49
2023-02-14T07:10:56.401Z,60.86
2023-02-14T07:11:56.939Z,62.34
2023-02-14T07:12:57.619Z,63.89
2023-02-14T07:13:57.982Z,64.77
2023-02-14T07:14:58.629Z,64.57
2023-02-14T07:15:59.432Z,63.68
2023-02-14T07:16:59.821Z,62.58
2023-02-14T07:18:00.540Z,61.62
2023-02-14T07:19:01.329Z,60.75
2023-02-14T07:20:02.774Z,59.99
2023-02-14T07:21:03.540Z,59.30
2023-02-14T07:22:04.184Z,58.50
2023-02-14T07:23:04.729Z,58.49
2023-02-14T07:24:05.302Z,59.44
2023-02-14T07:25:07.360Z,60.87
2023-02-14T07:26:07.839Z,62.37
2023-02-14T07:27:08.295Z,63.99
2023-02-14T07:28:08.684Z,64.89
2023-02-14T07:29:09.129Z,64.69
2023-02-14T07:30:11.417Z,63.76
2023-02-14T07:31:12.083Z,62.64
2023-02-14T07:32:12.802Z,61.58
2023-02-14T07:33:13.473Z,60.68
2023-02-14T07:34:14.179Z,59.94
2023-02-14T07:35:15.360Z,59.41
2023-02-14T07:36:15.947Z,58.54
2023-02-14T07:37:17.146Z,58.38
2023-02-14T07:38:17.628Z,59.29
2023-02-14T07:39:18.055Z,60.63
2023-02-14T07:40:21.749Z,62.13
2023-02-14T07:41:22.721Z,63.85
2023-02-14T07:42:23.198Z,64.92
2023-02-14T07:43:23.573Z,64.77
2023-02-14T07:44:24.394Z,64.03
2023-02-14T07:45:25.269Z,62.98
2023-02-14T07:46:25.718Z,61.95
2023-02-14T07:47:26.265Z,61.06
2023-02-14T07:48:29.658Z,60.31
2023-02-14T07:49:31.504Z,59.62
2023-02-14T07:50:31.955Z,58.83
2023-02-14T07:51:32.363Z,58.33
2023-02-14T07:52:32.813Z,58.89
2023-02-14T07:53:33.282Z,60.11
2023-02-14T07:54:33.868Z,61.51
2023-02-14T07:55:34.589Z,62.94
2023-02-14T07:56:35.469Z,64.40
2023-02-14T07:57:35.947Z,64.83
2023-02-14T07:58:36.324Z,64.24
2023-02-14T07:59:36.804Z,63.20
2023-02-14T08:00:37.262Z,62.10
2023-02-14T08:01:37.745Z,61.11
2023-02-14T08:02:38.191Z,60.27
2023-02-14T08:03:38.615Z,59.51
2023-02-14T08:04:38.978Z,58.60
2023-02-14T08:05:40.653Z,58.31
2023-02-14T08:06:42.474Z,59.07
2023-02-14T08:07:43.725Z,60.35
2023-02-14T08:08:45.109Z,61.72
2023-02-14T08:09:45.566Z,63.12
2023-02-14T08:10:46.003Z,64.43
2023-02-14T08:12:05.165Z,64.61
2023-02-14T08:13:05.922Z,63.63
2023-02-14T08:14:06.420Z,62.57
2023-02-14T08:15:26.568Z,61.63
2023-02-14T08:16:27.260Z,60.51
2023-02-14T08:17:27.733Z,59.80
2023-02-14T08:18:28.162Z,59.06
2023-02-14T08:19:29.300Z,58.40
2023-02-14T08:20:29.807Z,58.79
2023-02-14T08:21:30.684Z,59.90
2023-02-14T08:22:31.172Z,61.24
2023-02-14T08:23:32.425Z,62.63
2023-02-14T08:24:33.220Z,64.10
2023-02-14T08:25:34.111Z,64.70
2023-02-14T08:26:36.847Z,64.17
2023-02-14T08:27:37.272Z,63.10
2023-02-14T08:28:37.753Z,61.98
2023-02-14T08:29:38.245Z,61.00
2023-02-14T08:30:38.862Z,60.10
2023-02-14T08:31:39.352Z,59.26
2023-02-14T08:32:40.055Z,58.35
2023-02-14T08:33:42.444Z,58.35
2023-02-14T08:34:43.139Z,59.30
2023-02-14T08:35:44.012Z,60.57
2023-02-14T08:36:45.084Z,61.86
2023-02-14T08:37:45.808Z,63.29
2023-02-14T08:38:49.764Z,64.52
2023-02-14T08:39:50.272Z,64.59
2023-02-14T08:40:50.779Z,63.83
2023-02-14T08:41:51.240Z,62.67
2023-02-14T08:42:51.781Z,61.41
2023-02-14T08:43:52.268Z,60.43
2023-02-14T08:44:52.600Z,59.60
2023-02-14T08:45:53.492Z,58.58
2023-02-14T08:46:54.064Z,58.02
2023-02-14T08:47:54.652Z,58.58
2023-02-14T08:48:55.944Z,59.73
2023-02-14T08:49:56.425Z,61.07
2023-02-14T08:50:57.229Z,62.43
2023-02-14T08:51:57.846Z,63.88
2023-02-14T08:52:58.708Z,64.58
2023-02-14T08:53:59.039Z,64.18
2023-02-14T08:54:59.535Z,63.25
2023-02-14T08:56:08.535Z,62.10
2023-02-14T08:57:08.995Z,60.89
2023-02-14T08:58:09.467Z,59.98
2023-02-14T08:59:09.869Z,58.94
2023-02-14T09:00:10.918Z,58.09
2023-02-14T09:01:16.375Z,58.28
2023-02-14T09:02:16.907Z,59.27
2023-02-14T09:03:17.380Z,60.52
2023-02-14T09:04:17.843Z,61.82
2023-02-14T09:05:20.608Z,63.13
2023-02-14T09:06:21.708Z,64.45
2023-02-14T09:07:22.405Z,64.61
2023-02-14T09:08:22.979Z,63.83
2023-02-14T09:09:23.519Z,62.76
2023-02-14T09:10:25.787Z,61.68
2023-02-14T09:11:26.866Z,60.64
2023-02-14T09:12:27.343Z,59.71
2023-02-14T09:13:28.198Z,58.74
2023-02-14T09:14:33.741Z,57.99
2023-02-14T09:15:34.301Z,58.38
2023-02-14T09:16:35.115Z,59.42
2023-02-14T09:17:37.869Z,60.68
2023-02-14T09:18:39.469Z,62.02
2023-02-14T09:19:40.819Z,63.41
2023-02-14T09:20:44.220Z,64.44
2023-02-14T09:21:44.620Z,64.29
2023-02-14T09:22:46.549Z,63.35
2023-02-14T09:23:49.004Z,62.16
2023-02-14T09:24:49.694Z,61.07
2023-02-14T09:25:50.424Z,60.21
2023-02-14T09:26:50.866Z,59.38
2023-02-14T09:27:51.486Z,58.37
2023-02-14T09:28:51.941Z,58.09
2023-02-14T09:29:53.127Z,58.83
2023-02-14T09:30:54.588Z,59.97
2023-02-14T09:31:58.963Z,61.27
2023-02-14T09:32:59.847Z,62.66
2023-02-14T09:34:19.312Z,64.04
2023-02-14T09:35:39.150Z,64.40
2023-02-14T09:36:58.650Z,63.22
2023-02-14T09:37:59.204Z,61.75
2023-02-14T09:38:59.669Z,60.76
2023-02-14T09:40:00.128Z,59.80
2023-02-14T09:41:06.257Z,58.81
2023-02-14T09:42:33.351Z,57.88
2023-02-14T09:43:38.597Z,58.74
2023-02-14T09:44:46.034Z,60.04
2023-02-14T09:45:54.448Z,61.50
2023-02-14T09:47:04.896Z,62.98
2023-02-14T09:48:28.276Z,64.43
2023-02-14T09:49:37.494Z,64.26
2023-02-14T09:51:04.733Z,63.10
2023-02-14T09:52:12.335Z,61.34
2023-02-14T09:53:27.098Z,60.18
2023-02-14T09:54:32.070Z,59.01
2023-02-14T09:55:51.728Z,58.04
2023-02-14T09:56:53.274Z,58.46
2023-02-14T09:57:59.952Z,59.48
2023-02-14T09:59:14.810Z,60.75
2023-02-14T10:00:32.699Z,62.30
2023-02-14T10:01:45.599Z,64.05
2023-02-14T10:03:32.754Z,64.40
2023-02-14T10:04:55.478Z,62.79
2023-02-14T10:06:04.764Z,61.25
2023-02-14T10:07:25.314Z,60.11
2023-02-14T10:08:42.857Z,58.90
2023-02-14T10:10:09.034Z,58.00
2023-02-14T10:11:19.589Z,58.84
2023-02-14T10:12:33.098Z,60.30
2023-02-14T10:13:41.869Z,61.80
2023-02-14T10:14:43.032Z,63.14
2023-02-14T10:15:58.406Z,64.23
2023-02-14T10:17:16.162Z,64.08
2023-02-14T10:18:40.562Z,62.85
2023-02-14T10:20:00.955Z,61.32
2023-02-14T10:21:05.423Z,60.10
2023-02-14T10:22:19.060Z,59.23
2023-02-14T10:23:35.457Z,58.11
2023-02-14T10:24:57.040Z,58.53
2023-02-14T10:26:11.699Z,59.92
2023-02-14T10:27:31.028Z,61.47
2023-02-14T10:28:48.856Z,63.12
2023-02-14T10:29:49.630Z,64.44
2023-02-14T10:31:22.593Z,64.22
2023-02-14T10:33:10.900Z,62.65
2023-02-14T10:34:22.918Z,60.64
2023-02-14T10:35:58.900Z,59.55
2023-02-14T10:37:24.185Z,58.06
2023-02-14T10:38:33.366Z,58.53
2023-02-14T10:40:09.446Z,59.77
2023-02-14T10:41:41.991Z,61.72
2023-02-14T10:42:48.763Z,63.68
2023-02-14T10:43:57.998Z,64.41
2023-02-14T10:45:23.365Z,63.85
2023-02-14T10:46:36.022Z,62.33
2023-02-14T10:47:55.023Z,60.90
2023-02-14T10:49:37.398Z,59.70
2023-02-14T10:51:14.424Z,58.00
2023-02-14T10:52:29.391Z,58.45
2023-02-14T10:54:09.997Z,59.87
2023-02-14T10:55:37.019Z,62.00
2023-02-14T10:57:09.345Z,63.88
2023-02-14T10:58:15.513Z,64.24
2023-02-14T10:59:48.034Z,63.22
2023-02-14T11:01:13.049Z,61.42
2023-02-14T11:02:18.025Z,59.79
2023-02-14T11:03:19.449Z,58.52
2023-02-14T11:04:24.572Z,57.71
2023-02-14T11:05:34.283Z,58.14
2023-02-14T11:06:34.663Z,59.43
2023-02-14T11:07:35.160Z,60.70
2023-02-14T11:08:39.875Z,61.96
2023-02-14T11:09:40.534Z,63.34
2023-02-14T11:10:41.210Z,64.31
2023-02-14T11:11:56.218Z,64.08
2023-02-14T11:12:57.856Z,62.67
2023-02-14T11:13:58.397Z,61.46
2023-02-14T11:15:32.861Z,60.27
2023-02-14T11:16:36.840Z,58.56
2023-02-14T11:17:37.344Z,57.71
2023-02-14T11:18:40.292Z,58.06
2023-02-14T11:19:40.692Z,59.19
2023-02-14T11:20:41.163Z,60.56
2023-02-14T11:21:45.641Z,61.91
2023-02-14T11:22:46.264Z,63.37
2023-02-14T11:23:50.168Z,64.46
2023-02-14T11:25:04.729Z,64.32
2023-02-14T11:26:29.536Z,63.10
2023-02-14T11:27:30.537Z,61.58
2023-02-14T11:28:31.697Z,60.49
2023-02-14T11:29:43.040Z,59.53
2023-02-14T11:30:48.480Z,58.10
2023-02-14T11:31:49.538Z,57.70
2023-02-14T11:32:55.711Z,58.53
2023-02-14T11:33:58.030Z,59.63
2023-02-14T11:35:03.593Z,60.80
2023-02-14T11:36:11.470Z,62.09
2023-02-14T11:37:42.249Z,63.46
2023-02-14T11:38:54.100Z,64.25
2023-02-14T11:39:58.839Z,63.40
2023-02-14T11:41:00.114Z,62.17
2023-02-14T11:42:04.032Z,60.98
2023-02-14T11:43:14.239Z,59.85
2023-02-14T11:44:21.993Z,58.65
2023-02-14T11:45:30.183Z,57.94
2023-02-14T11:46:38.558Z,58.58
2023-02-14T11:47:45.237Z,59.94
2023-02-14T11:49:02.321Z,61.04
2023-02-14T11:50:21.592Z,62.55
2023-02-14T11:51:33.465Z,64.08
2023-02-14T11:52:47.747Z,64.12
2023-02-14T11:53:55.479Z,62.95
2023-02-14T11:54:58.509Z,61.50
2023-02-14T11:56:00.141Z,60.25
2023-02-14T11:57:06.754Z,59.06
2023-02-14T11:58:27.089Z,57.83
2023-02-14T11:59:33.906Z,58.05
2023-02-14T12:00:34.623Z,59.07
2023-02-14T12:01:38.014Z,60.20
2023-02-14T12:02:49.325Z,61.42
2023-02-14T12:03:53.354Z,62.80
2023-02-14T12:05:16.347Z,64.10
2023-02-14T12:06:30.746Z,63.95
2023-02-14T12:07:36.487Z,62.60
2023-02-14T12:08:38.412Z,61.14
2023-02-14T12:09:40.786Z,59.95
2023-02-14T12:10:44.612Z,58.70
2023-02-14T12:11:58.827Z,57.68
2023-02-14T12:13:08.302Z,58.04
2023-02-14T12:14:21.311Z,59.14
2023-02-14T12:15:39.916Z,60.38
2023-02-14T12:17:04.146Z,61.87
2023-02-14T12:18:16.560Z,63.44
2023-02-14T12:19:26.195Z,64.04
2023-02-14T12:21:01.279Z,63.26
2023-02-14T12:22:05.512Z,61.39
2023-02-14T12:23:29.492Z,60.24
2023-02-14T12:24:39.867Z,58.64
2023-02-14T12:25:49.829Z,57.50
2023-02-14T12:27:16.029Z,57.83
2023-02-14T12:28:27.136Z,59.13
2023-02-14T12:29:48.129Z,60.41
2023-02-14T12:30:49.107Z,61.81
2023-02-14T12:31:49.989Z,62.87
2023-02-14T12:33:01.133Z,63.91
2023-02-14T12:34:03.740Z,63.82
2023-02-14T12:35:17.264Z,62.91
2023-02-14T12:36:57.379Z,61.48
2023-02-14T12:38:15.426Z,59.67
2023-02-14T12:39:36.240Z,58.08
2023-02-14T12:41:05.262Z,57.74
2023-02-14T12:42:25.650Z,59.05
2023-02-14T12:44:13.832Z,60.43
2023-02-14T12:45:23.911Z,62.24
2023-02-14T12:46:51.079Z,63.50
2023-02-14T12:48:00.613Z,63.96
2023-02-14T12:49:13.972Z,62.94
2023-02-14T12:50:47.677Z,61.46
2023-02-14T12:52:02.677Z,59.49
2023-02-14T12:53:22.413Z,57.87
2023-02-14T12:54:48.544Z,57.53
2023-02-14T12:56:06.269Z,58.77
2023-02-14T12:57:33.120Z,60.04
2023-02-14T12:58:44.179Z,61.49
2023-02-14T13:00:03.683Z,62.77
2023-02-14T13:01:24.671Z,64.20
2023-02-14T13:03:03.824Z,63.57
2023-02-14T13:04:22.679Z,61.76
2023-02-14T13:05:53.165Z,60.30
2023-02-14T13:07:15.803Z,58.62
2023-02-14T13:08:31.292Z,57.63
2023-02-14T13:09:53.081Z,58.37
2023-02-14T13:10:53.774Z,59.86
2023-02-14T13:12:24.873Z,61.06
2023-02-14T13:13:55.546Z,62.69
2023-02-14T13:15:10.980Z,64.09
2023-02-14T13:16:34.536Z,63.60
2023-02-14T13:17:46.502Z,62.10
2023-02-14T13:18:58.209Z,60.65
2023-02-14T13:20:45.197Z,59.37
2023-02-14T13:21:49.086Z,57.70
2023-02-14T13:22:52.415Z,57.96
2023-02-14T13:24:01.958Z,58.87
2023-02-14T13:25:13.744Z,60.26
2023-02-14T13:26:19.976Z,61.54
2023-02-14T13:27:32.644Z,62.87
2023-02-14T13:28:37.160Z,64.15
2023-02-14T13:29:50.285Z,64.02
2023-02-14T13:30:52.432Z,62.82
2023-02-14T13:31:59.837Z,61.49
2023-02-14T13:33:07.904Z,60.12
2023-02-14T13:34:26.650Z,58.84
2023-02-14T13:35:31.288Z,57.73
2023-02-14T13:36:33.035Z,58.17
2023-02-14T13:37:37.224Z,59.15
2023-02-14T13:38:46.033Z,60.37
2023-02-14T13:39:55.821Z,61.55
2023-02-14T13:40:59.330Z,62.76
2023-02-14T13:41:59.969Z,63.94
2023-02-14T13:43:01.900Z,64.10
2023-02-14T13:44:04.686Z,63.30
2023-02-14T13:45:05.953Z,62.05
2023-02-14T13:46:06.816Z,60.89
2023-02-14T13:47:26.108Z,59.84
2023-02-14T13:48:28.899Z,58.27
2023-02-14T13:49:33.913Z,57.52
2023-02-14T13:50:39.870Z,57.98
2023-02-14T13:51:49.397Z,59.01
2023-02-14T13:52:49.941Z,60.43
2023-02-14T13:53:51.847Z,61.62
2023-02-14T13:55:05.321Z,62.75
2023-02-14T13:56:28.986Z,64.09
2023-02-14T13:57:36.769Z,63.78
2023-02-14T13:58:53.888Z,62.62
2023-02-14T14:00:16.490Z,61.02
2023-02-14T14:01:38.669Z,59.35
2023-02-14T14:02:56.396Z,57.72
2023-02-14T14:04:24.402Z,57.88
2023-02-14T14:05:34.741Z,59.40
2023-02-14T14:07:03.500Z,60.73
2023-02-14T14:08:35.131Z,62.33
2023-02-14T14:09:41.986Z,64.11
2023-02-14T14:10:47.423Z,64.11
2023-02-14T14:11:50.251Z,63.12
2023-02-14T14:12:52.411Z,61.87
2023-02-14T14:14:16.921Z,60.61
2023-02-14T14:15:19.828Z,58.98
2023-02-14T14:16:23.098Z,57.79
2023-02-14T14:17:25.391Z,57.68
2023-02-14T14:18:28.937Z,58.54
2023-02-14T14:19:29.394Z,59.71
2023-02-14T14:20:40.440Z,60.84
2023-02-14T14:21:45.114Z,62.05
2023-02-14T14:22:47.960Z,63.22
2023-02-14T14:24:11.833Z,64.12
2023-02-14T14:25:14.790Z,63.51
2023-02-14T14:26:39.059Z,62.22